sensor_id;sensor_type;location;lat;lon;timestamp;P1;durP1;ratioP1;P2;durP2;ratioP2
3613;SDS011;1821;50.936;6.854;2023-06-10T00:00:00;9.10;;;8.20;;
3613;SDS011;1821;50.936;6.854;2023-06-10T00:00:42;9.80;;;8.80;;
3613;SDS011;1821;50.936;6.854;2023-06-10T00:01:25;10.52;;;8.80;;
3613;SDS011;1821;50.936;6.854;2023-06-10T00:02:09;10.30;;;8.75;;
3613;SDS011;1821;50.936;6.854;2023-06-10T00:02:51;8.80;;;8.00;;
3613;SDS011;1821;50.936;6.854;2023-06-10T00:03:33;9.07;;;8.18;;
3613;SDS011;1821;50.936;6.854;2023-06-10T00:04:15;9.05;;;8.15;;
3613;SDS011;1821;50.936;6.854;2023-06-10T00:04:58;9.55;;;8.65;;
3613;SDS011;1821;50.936;6.854;2023-06-10T00:05:40;9.23;;;8.15;;
3613;SDS011;1821;50.936;6.854;2023-06-10T00:06:23;9.60;;;8.13;;
3613;SDS011;1821;50.936;6.854;2023-06-10T00:07:05;9.20;;;8.38;;
3613;SDS011;1821;50.936;6.854;2023-06-10T00:07:51;9.57;;;8.68;;
3613;SDS011;1821;50.936;6.854;2023-06-10T00:08:36;9.60;;;8.43;;
3613;SDS011;1821;50.936;6.854;2023-06-10T00:09:19;11.25;;;9.45;;
3613;SDS011;1821;50.936;6.854;2023-06-10T00:10:05;10.45;;;9.35;;
3613;SDS011;1821;50.936;6.854;2023-06-10T00:10:47;10.20;;;8.98;;
3613;SDS011;1821;50.936;6.854;2023-06-10T00:11:32;9.85;;;8.63;;
3613;SDS011;1821;50.936;6.854;2023-06-10T00:12:14;9.60;;;8.70;;
3613;SDS011;1821;50.936;6.854;2023-06-10T00:12:58;9.88;;;8.95;;
3613;SDS011;1821;50.936;6.854;2023-06-10T00:13:40;9.70;;;8.70;;
3613;SDS011;1821;50.936;6.854;2023-06-10T00:14:23;9.60;;;8.60;;
3613;SDS011;1821;50.936;6.854;2023-06-10T00:15:05;9.15;;;8.18;;
3613;SDS011;1821;50.936;6.854;2023-06-10T00:15:48;9.20;;;8.30;;
3613;SDS011;1821;50.936;6.854;2023-06-10T00:16:31;10.32;;;9.23;;
3613;SDS011;1821;50.936;6.854;2023-06-10T00:17:14;9.75;;;8.75;;
3613;SDS011;1821;50.936;6.854;2023-06-10T00:17:56;10.00;;;9.10;;
3613;SDS011;1821;50.936;6.854;2023-06-10T00:18:41;9.90;;;8.90;;
3613;SDS011;1821;50.936;6.854;2023-06-10T00:19:25;11.05;;;8.63;;
3613;SDS011;1821;50.936;6.854;2023-06-10T00:20:13;9.82;;;8.82;;
3613;SDS011;1821;50.936;6.854;2023-06-10T00:20:55;8.97;;;8.07;;
3613;SDS011;1821;50.936;6.854;2023-06-10T00:21:38;9.50;;;8.50;;
3613;SDS011;1821;50.936;6.854;2023-06-10T00:22:21;9.57;;;8.68;;
3613;SDS011;1821;50.936;6.854;2023-06-10T00:23:05;9.43;;;8.52;;
3613;SDS011;1821;50.936;6.854;2023-06-10T00:23:49;10.05;;;9.15;;
3613;SDS011;1821;50.936;6.854;2023-06-10T00:24:32;10.48;;;9.48;;
3613;SDS011;1821;50.936;6.854;2023-06-10T00:25:16;10.07;;;8.88;;
3613;SDS011;1821;50.936;6.854;2023-06-10T00:25:59;10.95;;;9.85;;
3613;SDS011;1821;50.936;6.854;2023-06-10T00:26:41;10.32;;;9.38;;
3613;SDS011;1821;50.936;6.854;2023-06-10T00:27:24;10.10;;;9.20;;
3613;SDS011;1821;50.936;6.854;2023-06-10T00:28:13;9.80;;;8.90;;
3613;SDS011;1821;50.936;6.854;2023-06-10T00:28:55;10.38;;;9.38;;
3613;SDS011;1821;50.936;6.854;2023-06-10T00:29:37;11.05;;;9.80;;
3613;SDS011;1821;50.936;6.854;2023-06-10T00:30:20;12.23;;;10.02;;
3613;SDS011;1821;50.936;6.854;2023-06-10T00:31:02;11.23;;;9.10;;
3613;SDS011;1821;50.936;6.854;2023-06-10T00:31:46;10.10;;;9.10;;
3613;SDS011;1821;50.936;6.854;2023-06-10T00:32:28;10.00;;;9.00;;
3613;SDS011;1821;50.936;6.854;2023-06-10T00:33:10;10.13;;;8.32;;
3613;SDS011;1821;50.936;6.854;2023-06-10T00:33:53;9.93;;;8.80;;
3613;SDS011;1821;50.936;6.854;2023-06-10T00:34:35;10.77;;;9.70;;
3613;SDS011;1821;50.936;6.854;2023-06-10T00:35:17;10.30;;;9.30;;
3613;SDS011;1821;50.936;6.854;2023-06-10T00:35:59;10.23;;;9.23;;
3613;SDS011;1821;50.936;6.854;2023-06-10T00:36:42;9.20;;;8.30;;
3613;SDS011;1821;50.936;6.854;2023-06-10T00:37:24;10.35;;;9.35;;
3613;SDS011;1821;50.936;6.854;2023-06-10T00:38:06;10.45;;;9.35;;
3613;SDS011;1821;50.936;6.854;2023-06-10T00:38:49;10.15;;;8.80;;
3613;SDS011;1821;50.936;6.854;2023-06-10T00:39:31;9.50;;;8.60;;
3613;SDS011;1821;50.936;6.854;2023-06-10T00:40:13;10.27;;;9.32;;
3613;SDS011;1821;50.936;6.854;2023-06-10T00:40:56;10.93;;;9.40;;
3613;SDS011;1821;50.936;6.854;2023-06-10T00:41:38;10.02;;;9.00;;
3613;SDS011;1821;50.936;6.854;2023-06-10T00:42:20;10.65;;;9.52;;
3613;SDS011;1821;50.936;6.854;2023-06-10T00:43:07;10.10;;;8.70;;
3613;SDS011;1821;50.936;6.854;2023-06-10T00:43:50;11.20;;;9.30;;
3613;SDS011;1821;50.936;6.854;2023-06-10T00:44:32;9.93;;;8.93;;
3613;SDS011;1821;50.936;6.854;2023-06-10T00:45:14;10.02;;;9.02;;
3613;SDS011;1821;50.936;6.854;2023-06-10T00:45:56;9.90;;;8.90;;
3613;SDS011;1821;50.936;6.854;2023-06-10T00:46:39;10.73;;;9.40;;
3613;SDS011;1821;50.936;6.854;2023-06-10T00:47:21;10.00;;;9.00;;
3613;SDS011;1821;50.936;6.854;2023-06-10T00:48:06;10.60;;;9.60;;
3613;SDS011;1821;50.936;6.854;2023-06-10T00:48:51;10.30;;;9.23;;
3613;SDS011;1821;50.936;6.854;2023-06-10T00:49:36;9.88;;;8.88;;
3613;SDS011;1821;50.936;6.854;2023-06-10T00:50:18;9.85;;;8.95;;
3613;SDS011;1821;50.936;6.854;2023-06-10T00:51:01;10.60;;;9.60;;
3613;SDS011;1821;50.936;6.854;2023-06-10T00:51:43;10.55;;;9.50;;
3613;SDS011;1821;50.936;6.854;2023-06-10T00:52:27;10.90;;;9.57;;
3613;SDS011;1821;50.936;6.854;2023-06-10T00:53:10;11.00;;;9.60;;
3613;SDS011;1821;50.936;6.854;2023-06-10T00:53:53;10.40;;;9.40;;
3613;SDS011;1821;50.936;6.854;2023-06-10T00:54:36;10.40;;;9.40;;
3613;SDS011;1821;50.936;6.854;2023-06-10T00:55:19;10.90;;;9.80;;
3613;SDS011;1821;50.936;6.854;2023-06-10T00:56:03;11.60;;;9.85;;
3613;SDS011;1821;50.936;6.854;2023-06-10T00:56:45;10.90;;;9.80;;
3613;SDS011;1821;50.936;6.854;2023-06-10T00:57:28;10.63;;;9.63;;
3613;SDS011;1821;50.936;6.854;2023-06-10T00:58:10;10.77;;;9.77;;
3613;SDS011;1821;50.936;6.854;2023-06-10T00:58:53;10.35;;;9.25;;
3613;SDS011;1821;50.936;6.854;2023-06-10T00:59:36;10.68;;;9.65;;
3613;SDS011;1821;50.936;6.854;2023-06-10T01:00:18;10.82;;;9.82;;
3613;SDS011;1821;50.936;6.854;2023-06-10T01:01:01;11.00;;;10.00;;
3613;SDS011;1821;50.936;6.854;2023-06-10T01:01:45;11.40;;;10.30;;
3613;SDS011;1821;50.936;6.854;2023-06-10T01:02:31;11.50;;;10.38;;
3613;SDS011;1821;50.936;6.854;2023-06-10T01:03:13;11.05;;;9.85;;
3613;SDS011;1821;50.936;6.854;2023-06-10T01:04:01;10.77;;;9.77;;
3613;SDS011;1821;50.936;6.854;2023-06-10T01:04:43;10.55;;;9.55;;
3613;SDS011;1821;50.936;6.854;2023-06-10T01:05:26;11.20;;;10.00;;
3613;SDS011;1821;50.936;6.854;2023-06-10T01:08:39;10.35;;;9.35;;
3613;SDS011;1821;50.936;6.854;2023-06-10T01:09:24;10.60;;;9.60;;
3613;SDS011;1821;50.936;6.854;2023-06-10T01:10:11;10.80;;;9.80;;
3613;SDS011;1821;50.936;6.854;2023-06-10T01:10:59;10.38;;;9.38;;
3613;SDS011;1821;50.936;6.854;2023-06-10T01:11:54;10.75;;;9.75;;
3613;SDS011;1821;50.936;6.854;2023-06-10T01:13:30;10.80;;;9.70;;
3613;SDS011;1821;50.936;6.854;2023-06-10T01:14:13;10.68;;;9.57;;
3613;SDS011;1821;50.936;6.854;2023-06-10T01:14:56;10.80;;;9.70;;
3613;SDS011;1821;50.936;6.854;2023-06-10T01:15:39;10.77;;;9.68;;
3613;SDS011;1821;50.936;6.854;2023-06-10T01:16:22;10.73;;;9.73;;
3613;SDS011;1821;50.936;6.854;2023-06-10T01:17:07;10.90;;;9.80;;
3613;SDS011;1821;50.936;6.854;2023-06-10T01:17:54;15.38;;;10.20;;
3613;SDS011;1821;50.936;6.854;2023-06-10T01:18:37;11.27;;;10.25;;
3613;SDS011;1821;50.936;6.854;2023-06-10T01:19:20;10.70;;;9.52;;
3613;SDS011;1821;50.936;6.854;2023-06-10T01:20:05;10.30;;;9.40;;
3613;SDS011;1821;50.936;6.854;2023-06-10T01:20:53;11.13;;;10.02;;
3613;SDS011;1821;50.936;6.854;2023-06-10T01:21:37;11.40;;;10.40;;
3613;SDS011;1821;50.936;6.854;2023-06-10T01:22:20;11.10;;;10.00;;
3613;SDS011;1821;50.936;6.854;2023-06-10T01:23:06;10.68;;;9.57;;
3613;SDS011;1821;50.936;6.854;2023-06-10T01:23:49;11.20;;;10.10;;
3613;SDS011;1821;50.936;6.854;2023-06-10T01:24:31;10.80;;;9.80;;
3613;SDS011;1821;50.936;6.854;2023-06-10T01:25:15;11.20;;;10.00;;
3613;SDS011;1821;50.936;6.854;2023-06-10T01:26:01;11.52;;;10.38;;
3613;SDS011;1821;50.936;6.854;2023-06-10T01:26:44;11.95;;;10.25;;
3613;SDS011;1821;50.936;6.854;2023-06-10T01:27:30;12.73;;;11.00;;
3613;SDS011;1821;50.936;6.854;2023-06-10T01:29:17;11.90;;;10.80;;
3613;SDS011;1821;50.936;6.854;2023-06-10T01:30:17;13.15;;;9.90;;
3613;SDS011;1821;50.936;6.854;2023-06-10T01:32:10;12.02;;;10.75;;
3613;SDS011;1821;50.936;6.854;2023-06-10T01:32:54;11.30;;;10.20;;
3613;SDS011;1821;50.936;6.854;2023-06-10T01:33:42;11.45;;;10.40;;
3613;SDS011;1821;50.936;6.854;2023-06-10T01:34:27;11.27;;;10.18;;
3613;SDS011;1821;50.936;6.854;2023-06-10T01:35:10;11.20;;;10.20;;
3613;SDS011;1821;50.936;6.854;2023-06-10T01:35:56;10.27;;;9.38;;
3613;SDS011;1821;50.936;6.854;2023-06-10T01:36:39;11.50;;;10.40;;
3613;SDS011;1821;50.936;6.854;2023-06-10T01:37:22;11.05;;;10.00;;
3613;SDS011;1821;50.936;6.854;2023-06-10T01:38:06;11.57;;;10.10;;
3613;SDS011;1821;50.936;6.854;2023-06-10T01:38:49;12.95;;;10.70;;
3613;SDS011;1821;50.936;6.854;2023-06-10T01:39:32;10.75;;;9.65;;
3613;SDS011;1821;50.936;6.854;2023-06-10T01:40:14;10.93;;;9.82;;
3613;SDS011;1821;50.936;6.854;2023-06-10T01:40:57;11.40;;;10.20;;
3613;SDS011;1821;50.936;6.854;2023-06-10T01:41:40;11.30;;;10.20;;
3613;SDS011;1821;50.936;6.854;2023-06-10T01:42:22;11.40;;;10.40;;
3613;SDS011;1821;50.936;6.854;2023-06-10T01:43:05;11.57;;;10.48;;
3613;SDS011;1821;50.936;6.854;2023-06-10T01:43:47;12.23;;;10.15;;
3613;SDS011;1821;50.936;6.854;2023-06-10T01:44:30;11.60;;;10.03;;
3613;SDS011;1821;50.936;6.854;2023-06-10T01:45:12;10.88;;;9.85;;
3613;SDS011;1821;50.936;6.854;2023-06-10T01:45:54;12.77;;;10.65;;
3613;SDS011;1821;50.936;6.854;2023-06-10T01:46:36;11.40;;;10.20;;
3613;SDS011;1821;50.936;6.854;2023-06-10T01:47:21;11.20;;;10.20;;
3613;SDS011;1821;50.936;6.854;2023-06-10T01:48:03;11.32;;;10.43;;
3613;SDS011;1821;50.936;6.854;2023-06-10T01:48:46;11.25;;;10.15;;
3613;SDS011;1821;50.936;6.854;2023-06-10T01:49:28;11.70;;;10.60;;
3613;SDS011;1821;50.936;6.854;2023-06-10T01:50:11;11.93;;;10.80;;
3613;SDS011;1821;50.936;6.854;2023-06-10T01:50:55;11.68;;;10.23;;
3613;SDS011;1821;50.936;6.854;2023-06-10T01:51:40;11.60;;;10.40;;
3613;SDS011;1821;50.936;6.854;2023-06-10T01:52:25;11.65;;;10.55;;
3613;SDS011;1821;50.936;6.854;2023-06-10T01:53:07;12.05;;;10.85;;
3613;SDS011;1821;50.936;6.854;2023-06-10T01:53:50;12.18;;;10.95;;
3613;SDS011;1821;50.936;6.854;2023-06-10T01:54:32;11.65;;;10.45;;
3613;SDS011;1821;50.936;6.854;2023-06-10T01:55:16;12.00;;;10.80;;
3613;SDS011;1821;50.936;6.854;2023-06-10T01:55:58;11.35;;;10.25;;
3613;SDS011;1821;50.936;6.854;2023-06-10T01:56:41;11.75;;;10.30;;
3613;SDS011;1821;50.936;6.854;2023-06-10T01:57:23;13.43;;;11.10;;
3613;SDS011;1821;50.936;6.854;2023-06-10T01:58:05;13.75;;;10.70;;
3613;SDS011;1821;50.936;6.854;2023-06-10T01:58:48;12.27;;;11.07;;
3613;SDS011;1821;50.936;6.854;2023-06-10T01:59:30;11.60;;;10.40;;
3613;SDS011;1821;50.936;6.854;2023-06-10T02:00:13;13.40;;;10.80;;
3613;SDS011;1821;50.936;6.854;2023-06-10T02:00:56;11.07;;;10.07;;
3613;SDS011;1821;50.936;6.854;2023-06-10T02:01:38;11.40;;;10.27;;
3613;SDS011;1821;50.936;6.854;2023-06-10T02:02:21;11.48;;;10.27;;
3613;SDS011;1821;50.936;6.854;2023-06-10T02:03:03;12.00;;;10.90;;
3613;SDS011;1821;50.936;6.854;2023-06-10T02:03:46;12.10;;;11.00;;
3613;SDS011;1821;50.936;6.854;2023-06-10T02:04:28;10.82;;;9.85;;
3613;SDS011;1821;50.936;6.854;2023-06-10T02:05:11;10.60;;;9.70;;
3613;SDS011;1821;50.936;6.854;2023-06-10T02:05:53;11.80;;;10.70;;
3613;SDS011;1821;50.936;6.854;2023-06-10T02:06:35;11.70;;;10.60;;
3613;SDS011;1821;50.936;6.854;2023-06-10T02:07:21;11.20;;;10.20;;
3613;SDS011;1821;50.936;6.854;2023-06-10T02:08:04;12.05;;;10.95;;
3613;SDS011;1821;50.936;6.854;2023-06-10T02:08:46;11.80;;;10.60;;
3613;SDS011;1821;50.936;6.854;2023-06-10T02:09:29;11.20;;;10.10;;
3613;SDS011;1821;50.936;6.854;2023-06-10T02:10:11;11.35;;;10.35;;
3613;SDS011;1821;50.936;6.854;2023-06-10T02:10:53;11.30;;;10.20;;
3613;SDS011;1821;50.936;6.854;2023-06-10T02:11:36;11.80;;;10.60;;
3613;SDS011;1821;50.936;6.854;2023-06-10T02:12:18;11.30;;;10.10;;
3613;SDS011;1821;50.936;6.854;2023-06-10T02:13:00;10.60;;;9.70;;
3613;SDS011;1821;50.936;6.854;2023-06-10T02:13:43;10.80;;;9.80;;
3613;SDS011;1821;50.936;6.854;2023-06-10T02:14:25;11.90;;;10.70;;
3613;SDS011;1821;50.936;6.854;2023-06-10T02:15:08;12.10;;;10.90;;
3613;SDS011;1821;50.936;6.854;2023-06-10T02:15:50;11.45;;;10.35;;
3613;SDS011;1821;50.936;6.854;2023-06-10T02:16:35;11.90;;;10.70;;
3613;SDS011;1821;50.936;6.854;2023-06-10T02:17:18;11.70;;;10.60;;
3613;SDS011;1821;50.936;6.854;2023-06-10T02:18:00;11.32;;;10.23;;
3613;SDS011;1821;50.936;6.854;2023-06-10T02:18:45;11.50;;;10.40;;
3613;SDS011;1821;50.936;6.854;2023-06-10T02:19:28;11.32;;;10.23;;
3613;SDS011;1821;50.936;6.854;2023-06-10T02:20:12;11.15;;;10.15;;
3613;SDS011;1821;50.936;6.854;2023-06-10T02:20:55;11.68;;;10.48;;
3613;SDS011;1821;50.936;6.854;2023-06-10T02:21:37;11.88;;;10.40;;
3613;SDS011;1821;50.936;6.854;2023-06-10T02:22:22;11.20;;;10.20;;
3613;SDS011;1821;50.936;6.854;2023-06-10T02:23:05;10.95;;;9.88;;
3613;SDS011;1821;50.936;6.854;2023-06-10T02:23:47;10.80;;;9.80;;
3613;SDS011;1821;50.936;6.854;2023-06-10T02:24:30;12.45;;;9.98;;
3613;SDS011;1821;50.936;6.854;2023-06-10T02:25:12;11.82;;;10.65;;
3613;SDS011;1821;50.936;6.854;2023-06-10T02:25:54;11.05;;;9.95;;
3613;SDS011;1821;50.936;6.854;2023-06-10T02:26:36;11.15;;;9.95;;
3613;SDS011;1821;50.936;6.854;2023-06-10T02:27:20;10.98;;;9.95;;
3613;SDS011;1821;50.936;6.854;2023-06-10T02:28:05;10.98;;;9.88;;
3613;SDS011;1821;50.936;6.854;2023-06-10T02:28:48;10.98;;;9.77;;
3613;SDS011;1821;50.936;6.854;2023-06-10T02:29:30;11.10;;;10.00;;
3613;SDS011;1821;50.936;6.854;2023-06-10T02:30:13;10.93;;;9.82;;
3613;SDS011;1821;50.936;6.854;2023-06-10T02:30:55;11.15;;;10.05;;
3613;SDS011;1821;50.936;6.854;2023-06-10T02:31:38;11.48;;;10.38;;
3613;SDS011;1821;50.936;6.854;2023-06-10T02:32:21;13.18;;;10.95;;
3613;SDS011;1821;50.936;6.854;2023-06-10T02:33:03;12.45;;;10.63;;
3613;SDS011;1821;50.936;6.854;2023-06-10T02:33:46;10.85;;;9.80;;
3613;SDS011;1821;50.936;6.854;2023-06-10T02:34:29;11.70;;;10.50;;
3613;SDS011;1821;50.936;6.854;2023-06-10T02:35:11;11.15;;;10.13;;
3613;SDS011;1821;50.936;6.854;2023-06-10T02:35:54;11.63;;;10.52;;
3613;SDS011;1821;50.936;6.854;2023-06-10T02:36:37;11.20;;;10.20;;
3613;SDS011;1821;50.936;6.854;2023-06-10T02:37:19;11.80;;;10.70;;
3613;SDS011;1821;50.936;6.854;2023-06-10T02:38:02;11.10;;;10.00;;
3613;SDS011;1821;50.936;6.854;2023-06-10T02:38:45;11.70;;;10.07;;
3613;SDS011;1821;50.936;6.854;2023-06-10T02:39:27;10.98;;;9.98;;
3613;SDS011;1821;50.936;6.854;2023-06-10T02:40:11;10.65;;;9.65;;
3613;SDS011;1821;50.936;6.854;2023-06-10T02:40:54;11.82;;;10.27;;
3613;SDS011;1821;50.936;6.854;2023-06-10T02:41:36;12.50;;;10.65;;
3613;SDS011;1821;50.936;6.854;2023-06-10T02:42:19;11.82;;;10.63;;
3613;SDS011;1821;50.936;6.854;2023-06-10T02:43:01;11.27;;;10.27;;
3613;SDS011;1821;50.936;6.854;2023-06-10T02:43:44;11.25;;;10.25;;
3613;SDS011;1821;50.936;6.854;2023-06-10T02:44:26;11.15;;;10.05;;
3613;SDS011;1821;50.936;6.854;2023-06-10T02:45:08;10.55;;;9.50;;
3613;SDS011;1821;50.936;6.854;2023-06-10T02:45:51;10.82;;;9.82;;
3613;SDS011;1821;50.936;6.854;2023-06-10T02:46:34;11.50;;;10.50;;
3613;SDS011;1821;50.936;6.854;2023-06-10T02:47:16;11.52;;;10.43;;
3613;SDS011;1821;50.936;6.854;2023-06-10T02:47:58;11.88;;;10.27;;
3613;SDS011;1821;50.936;6.854;2023-06-10T02:48:41;12.00;;;10.80;;
3613;SDS011;1821;50.936;6.854;2023-06-10T02:49:26;11.45;;;10.35;;
3613;SDS011;1821;50.936;6.854;2023-06-10T02:50:12;12.25;;;11.15;;
3613;SDS011;1821;50.936;6.854;2023-06-10T02:50:54;12.35;;;11.15;;
3613;SDS011;1821;50.936;6.854;2023-06-10T02:51:37;11.10;;;10.13;;
3613;SDS011;1821;50.936;6.854;2023-06-10T02:52:21;11.77;;;10.67;;
3613;SDS011;1821;50.936;6.854;2023-06-10T02:53:05;11.98;;;10.93;;
3613;SDS011;1821;50.936;6.854;2023-06-10T02:53:48;11.30;;;10.20;;
3613;SDS011;1821;50.936;6.854;2023-06-10T02:54:30;11.80;;;10.60;;
3613;SDS011;1821;50.936;6.854;2023-06-10T02:55:12;13.20;;;11.38;;
3613;SDS011;1821;50.936;6.854;2023-06-10T02:55:54;12.20;;;11.00;;
3613;SDS011;1821;50.936;6.854;2023-06-10T02:56:37;11.90;;;10.70;;
3613;SDS011;1821;50.936;6.854;2023-06-10T02:57:23;11.95;;;10.75;;
3613;SDS011;1821;50.936;6.854;2023-06-10T02:58:05;12.48;;;11.05;;
3613;SDS011;1821;50.936;6.854;2023-06-10T02:58:48;12.88;;;11.60;;
3613;SDS011;1821;50.936;6.854;2023-06-10T02:59:31;11.38;;;10.27;;
3613;SDS011;1821;50.936;6.854;2023-06-10T03:00:14;11.68;;;10.57;;
3613;SDS011;1821;50.936;6.854;2023-06-10T03:00:56;11.60;;;10.50;;
3613;SDS011;1821;50.936;6.854;2023-06-10T03:01:39;11.25;;;10.25;;
3613;SDS011;1821;50.936;6.854;2023-06-10T03:02:22;12.10;;;10.90;;
3613;SDS011;1821;50.936;6.854;2023-06-10T03:03:09;11.18;;;10.18;;
3613;SDS011;1821;50.936;6.854;2023-06-10T03:03:55;11.43;;;10.30;;
3613;SDS011;1821;50.936;6.854;2023-06-10T03:04:38;11.30;;;10.30;;
3613;SDS011;1821;50.936;6.854;2023-06-10T03:05:20;11.30;;;10.30;;
3613;SDS011;1821;50.936;6.854;2023-06-10T03:06:03;11.75;;;10.65;;
3613;SDS011;1821;50.936;6.854;2023-06-10T03:06:45;11.85;;;10.75;;
3613;SDS011;1821;50.936;6.854;2023-06-10T03:07:29;11.90;;;10.88;;
3613;SDS011;1821;50.936;6.854;2023-06-10T03:08:12;11.80;;;10.70;;
3613;SDS011;1821;50.936;6.854;2023-06-10T03:08:54;11.77;;;10.68;;
3613;SDS011;1821;50.936;6.854;2023-06-10T03:09:36;12.30;;;11.10;;
3613;SDS011;1821;50.936;6.854;2023-06-10T03:10:24;11.98;;;10.80;;
3613;SDS011;1821;50.936;6.854;2023-06-10T03:11:10;11.70;;;10.50;;
3613;SDS011;1821;50.936;6.854;2023-06-10T03:11:52;11.40;;;10.40;;
3613;SDS011;1821;50.936;6.854;2023-06-10T03:12:34;11.50;;;10.40;;
3613;SDS011;1821;50.936;6.854;2023-06-10T03:13:17;11.65;;;10.50;;
3613;SDS011;1821;50.936;6.854;2023-06-10T03:13:59;12.10;;;10.90;;
3613;SDS011;1821;50.936;6.854;2023-06-10T03:14:41;12.10;;;10.90;;
3613;SDS011;1821;50.936;6.854;2023-06-10T03:15:24;11.95;;;10.75;;
3613;SDS011;1821;50.936;6.854;2023-06-10T03:16:06;12.03;;;10.83;;
3613;SDS011;1821;50.936;6.854;2023-06-10T03:16:51;11.32;;;10.32;;
3613;SDS011;1821;50.936;6.854;2023-06-10T03:17:33;11.90;;;10.70;;
3613;SDS011;1821;50.936;6.854;2023-06-10T03:18:16;11.85;;;10.68;;
3613;SDS011;1821;50.936;6.854;2023-06-10T03:19:00;12.15;;;10.95;;
3613;SDS011;1821;50.936;6.854;2023-06-10T03:19:42;11.95;;;10.80;;
3613;SDS011;1821;50.936;6.854;2023-06-10T03:20:27;11.37;;;10.17;;
3613;SDS011;1821;50.936;6.854;2023-06-10T03:21:09;11.02;;;9.95;;
3613;SDS011;1821;50.936;6.854;2023-06-10T03:22:07;11.77;;;10.68;;
3613;SDS011;1821;50.936;6.854;2023-06-10T03:22:49;12.15;;;11.05;;
3613;SDS011;1821;50.936;6.854;2023-06-10T03:23:31;12.02;;;10.93;;
3613;SDS011;1821;50.936;6.854;2023-06-10T03:24:15;13.05;;;11.50;;
3613;SDS011;1821;50.936;6.854;2023-06-10T03:24:58;12.63;;;11.35;;
3613;SDS011;1821;50.936;6.854;2023-06-10T03:25:41;12.57;;;11.32;;
3613;SDS011;1821;50.936;6.854;2023-06-10T03:26:23;12.10;;;10.80;;
3613;SDS011;1821;50.936;6.854;2023-06-10T03:27:06;11.90;;;10.70;;
3613;SDS011;1821;50.936;6.854;2023-06-10T03:27:49;11.55;;;10.45;;
3613;SDS011;1821;50.936;6.854;2023-06-10T03:28:32;12.00;;;10.88;;
3613;SDS011;1821;50.936;6.854;2023-06-10T03:29:14;11.65;;;10.55;;
3613;SDS011;1821;50.936;6.854;2023-06-10T03:29:56;11.50;;;10.40;;
3613;SDS011;1821;50.936;6.854;2023-06-10T03:30:39;12.60;;;11.30;;
3613;SDS011;1821;50.936;6.854;2023-06-10T03:31:21;12.48;;;11.18;;
3613;SDS011;1821;50.936;6.854;2023-06-10T03:32:06;11.60;;;10.50;;
3613;SDS011;1821;50.936;6.854;2023-06-10T03:32:48;11.10;;;10.10;;
3613;SDS011;1821;50.936;6.854;2023-06-10T03:33:30;11.50;;;10.50;;
3613;SDS011;1821;50.936;6.854;2023-06-10T03:34:13;11.20;;;10.20;;
3613;SDS011;1821;50.936;6.854;2023-06-10T03:34:56;12.10;;;10.90;;
3613;SDS011;1821;50.936;6.854;2023-06-10T03:35:39;12.10;;;10.90;;
3613;SDS011;1821;50.936;6.854;2023-06-10T03:36:22;12.05;;;10.75;;
3613;SDS011;1821;50.936;6.854;2023-06-10T03:37:04;12.00;;;10.80;;
3613;SDS011;1821;50.936;6.854;2023-06-10T03:37:47;12.05;;;10.95;;
3613;SDS011;1821;50.936;6.854;2023-06-10T03:38:29;11.50;;;10.50;;
3613;SDS011;1821;50.936;6.854;2023-06-10T03:39:11;10.98;;;9.98;;
3613;SDS011;1821;50.936;6.854;2023-06-10T03:39:54;12.60;;;11.40;;
3613;SDS011;1821;50.936;6.854;2023-06-10T03:40:36;12.23;;;11.10;;
3613;SDS011;1821;50.936;6.854;2023-06-10T03:41:18;11.55;;;10.35;;
3613;SDS011;1821;50.936;6.854;2023-06-10T03:42:02;12.30;;;11.00;;
3613;SDS011;1821;50.936;6.854;2023-06-10T03:42:44;11.80;;;10.60;;
3613;SDS011;1821;50.936;6.854;2023-06-10T03:43:27;11.93;;;10.82;;
3613;SDS011;1821;50.936;6.854;2023-06-10T03:44:09;11.70;;;10.65;;
3613;SDS011;1821;50.936;6.854;2023-06-10T03:44:51;12.07;;;10.90;;
3613;SDS011;1821;50.936;6.854;2023-06-10T03:45:34;12.43;;;10.77;;
3613;SDS011;1821;50.936;6.854;2023-06-10T03:46:17;12.57;;;11.32;;
3613;SDS011;1821;50.936;6.854;2023-06-10T03:47:00;11.55;;;10.45;;
3613;SDS011;1821;50.936;6.854;2023-06-10T03:47:43;11.90;;;10.80;;
3613;SDS011;1821;50.936;6.854;2023-06-10T03:48:26;12.63;;;11.43;;
3613;SDS011;1821;50.936;6.854;2023-06-10T03:49:08;13.30;;;12.00;;
3613;SDS011;1821;50.936;6.854;2023-06-10T03:49:51;11.70;;;10.50;;
3613;SDS011;1821;50.936;6.854;2023-06-10T03:50:35;12.15;;;10.90;;
3613;SDS011;1821;50.936;6.854;2023-06-10T03:51:17;12.00;;;10.80;;
3613;SDS011;1821;50.936;6.854;2023-06-10T03:51:59;12.20;;;11.00;;
3613;SDS011;1821;50.936;6.854;2023-06-10T03:52:42;12.00;;;10.80;;
3613;SDS011;1821;50.936;6.854;2023-06-10T03:53:25;11.60;;;10.52;;
3613;SDS011;1821;50.936;6.854;2023-06-10T03:54:07;12.98;;;11.88;;
3613;SDS011;1821;50.936;6.854;2023-06-10T03:54:50;12.68;;;11.57;;
3613;SDS011;1821;50.936;6.854;2023-06-10T03:55:32;12.50;;;11.30;;
3613;SDS011;1821;50.936;6.854;2023-06-10T03:56:14;12.57;;;11.48;;
3613;SDS011;1821;50.936;6.854;2023-06-10T03:56:57;13.15;;;11.95;;
3613;SDS011;1821;50.936;6.854;2023-06-10T03:57:39;12.43;;;11.23;;
3613;SDS011;1821;50.936;6.854;2023-06-10T03:58:21;11.23;;;10.13;;
3613;SDS011;1821;50.936;6.854;2023-06-10T03:59:04;12.68;;;11.38;;
3613;SDS011;1821;50.936;6.854;2023-06-10T03:59:46;12.82;;;11.52;;
3613;SDS011;1821;50.936;6.854;2023-06-10T04:00:29;12.40;;;11.15;;
3613;SDS011;1821;50.936;6.854;2023-06-10T04:01:11;12.65;;;11.45;;
3613;SDS011;1821;50.936;6.854;2023-06-10T04:01:54;12.85;;;11.55;;
3613;SDS011;1821;50.936;6.854;2023-06-10T04:02:36;13.10;;;11.90;;
3613;SDS011;1821;50.936;6.854;2023-06-10T04:03:23;12.82;;;11.63;;
3613;SDS011;1821;50.936;6.854;2023-06-10T04:04:05;12.90;;;11.70;;
3613;SDS011;1821;50.936;6.854;2023-06-10T04:04:48;12.60;;;11.30;;
3613;SDS011;1821;50.936;6.854;2023-06-10T04:05:32;12.48;;;11.27;;
3613;SDS011;1821;50.936;6.854;2023-06-10T04:06:15;12.63;;;11.43;;
3613;SDS011;1821;50.936;6.854;2023-06-10T04:06:57;12.70;;;11.50;;
3613;SDS011;1821;50.936;6.854;2023-06-10T04:07:40;12.32;;;11.02;;
3613;SDS011;1821;50.936;6.854;2023-06-10T04:08:23;12.75;;;11.43;;
3613;SDS011;1821;50.936;6.854;2023-06-10T04:09:06;12.13;;;10.93;;
3613;SDS011;1821;50.936;6.854;2023-06-10T04:09:49;11.80;;;10.30;;
3613;SDS011;1821;50.936;6.854;2023-06-10T04:10:31;14.90;;;11.23;;
3613;SDS011;1821;50.936;6.854;2023-06-10T04:11:14;13.10;;;11.35;;
3613;SDS011;1821;50.936;6.854;2023-06-10T04:11:56;12.00;;;10.80;;
3613;SDS011;1821;50.936;6.854;2023-06-10T04:12:39;12.00;;;10.80;;
3613;SDS011;1821;50.936;6.854;2023-06-10T04:13:21;12.82;;;11.52;;
3613;SDS011;1821;50.936;6.854;2023-06-10T04:14:03;12.75;;;11.45;;
3613;SDS011;1821;50.936;6.854;2023-06-10T04:14:46;13.18;;;11.88;;
3613;SDS011;1821;50.936;6.854;2023-06-10T04:15:28;13.57;;;11.20;;
3613;SDS011;1821;50.936;6.854;2023-06-10T04:16:14;15.55;;;11.00;;
3613;SDS011;1821;50.936;6.854;2023-06-10T04:16:56;12.40;;;11.30;;
3613;SDS011;1821;50.936;6.854;2023-06-10T04:17:38;11.82;;;10.73;;
3613;SDS011;1821;50.936;6.854;2023-06-10T04:18:24;12.75;;;11.40;;
3613;SDS011;1821;50.936;6.854;2023-06-10T04:19:06;11.50;;;10.32;;
3613;SDS011;1821;50.936;6.854;2023-06-10T04:19:49;12.00;;;10.88;;
3613;SDS011;1821;50.936;6.854;2023-06-10T04:20:31;11.93;;;10.73;;
3613;SDS011;1821;50.936;6.854;2023-06-10T04:21:14;12.73;;;11.52;;
3613;SDS011;1821;50.936;6.854;2023-06-10T04:21:56;13.10;;;11.80;;
3613;SDS011;1821;50.936;6.854;2023-06-10T04:22:38;12.55;;;11.35;;
3613;SDS011;1821;50.936;6.854;2023-06-10T04:23:21;12.63;;;11.43;;
3613;SDS011;1821;50.936;6.854;2023-06-10T04:24:03;12.52;;;11.43;;
3613;SDS011;1821;50.936;6.854;2023-06-10T04:24:46;12.15;;;11.00;;
3613;SDS011;1821;50.936;6.854;2023-06-10T04:25:28;11.95;;;10.75;;
3613;SDS011;1821;50.936;6.854;2023-06-10T04:26:11;12.27;;;11.18;;
3613;SDS011;1821;50.936;6.854;2023-06-10T04:26:55;13.20;;;12.00;;